CheckWX is a tool to help pilots better visualize weather data.  It is not intended as a substitute for an official pre-flight weather briefing.

14:51:24 UTC

OEDF TAF
King Fahd International Airport
Ad Dammam, Saudi Arabia
TAF OEDF 230900Z 2312/2418 10015KT 8000 FEW040 SCT100 PROB30 TEMPO 2312/2314 -RA TEMPO 2400/2405 5000 BR

Mar-23@
12:00 UTC

Mar-23 @ 12:00 UTC

Mar-24@
18:00 UTC

Mar-24 @ 18:00 UTC

TAF OEDF 230900Z 2312/2418 10015KT 8000 FEW040 SCT100
Wind
  • 100° at 15 KTS
Cloud Levels
  • Few at 4,000' AGL
  • Scattered at 10,000' AGL

Mar-23@
12:00 UTC

Mar-23 @ 12:00 UTC

Mar-23@
14:00 UTC

Mar-23 @ 14:00 UTC

PROB30 TEMPO 2312/2314 -RA

Expired

Conditions
Light Rain

Mar-24@
00:00 UTC

Mar-24 @ 00:00 UTC

Mar-24@
05:00 UTC

Mar-24 @ 05:00 UTC

TEMPO 2400/2405 5000 BR

Temporary

Temporary Changes expected for less than half the time period

Conditions
Mist